Time;durP1;ratioP1;P1;durP2;ratioP2;P2;SDS_P1;SDS_P2;PMS_P1;PMS_P2;Temp;Humidity;BMP_temperature;BMP_pressure;BME280_temperature;BME280_humidity;BME280_pressure;Samples;Min_cycle;Max_cycle;Signal;HPM_P1;HPM_P2
2021/05/22 00:00:11;;;;;;;9.82;1.92;;;12.20;62.30;;;;;;5053698;28;20098;-52
2021/05/22 00:02:38;;;;;;;13.35;1.90;;;12.20;62.20;;;;;;5072828;28;20465;-55
2021/05/22 00:05:05;;;;;;;10.98;1.90;;;12.10;63.20;;;;;;5058559;28;20029;-55
2021/05/22 00:07:31;;;;;;;8.20;2.40;;;12.10;63.40;;;;;;5069292;28;20040;-52
2021/05/22 00:09:57;;;;;;;9.57;1.88;;;12.10;63.50;;;;;;5064055;28;20040;-54
2021/05/22 00:12:24;;;;;;;12.68;1.90;;;12.10;63.80;;;;;;5071397;28;20070;-55
2021/05/22 00:14:54;;;;;;;7.38;1.65;;;12.10;63.90;;;;;;5046269;28;20119;-52
2021/05/22 00:17:21;;;;;;;10.02;1.90;;;12.10;64.30;;;;;;5071607;28;20111;-58
2021/05/22 00:19:46;;;;;;;9.85;1.92;;;12.00;64.90;;;;;;5042989;28;20503;-55
2021/05/22 00:22:13;;;;;;;12.63;1.98;;;12.00;64.80;;;;;;5071525;28;20040;-56
2021/05/22 00:24:39;;;;;;;11.32;2.00;;;12.00;65.40;;;;;;5043942;28;20455;-57
2021/05/22 00:27:05;;;;;;;11.18;2.00;;;12.00;64.80;;;;;;5061499;28;20049;-56
2021/05/22 00:29:30;;;;;;;8.57;2.03;;;11.90;65.50;;;;;;5073015;28;20036;-56
2021/05/22 00:31:56;;;;;;;11.48;2.03;;;11.90;65.50;;;;;;5074918;28;20064;-56
2021/05/22 00:34:22;;;;;;;12.60;2.38;;;11.90;65.40;;;;;;5057378;28;20029;-57
2021/05/22 00:36:48;;;;;;;12.50;2.20;;;11.90;65.50;;;;;;5075040;28;20052;-56
2021/05/22 00:39:14;;;;;;;9.60;2.15;;;11.80;66.30;;;;;;5075527;28;20044;-57
2021/05/22 00:41:39;;;;;;;9.95;2.10;;;11.80;66.80;;;;;;5074922;28;20040;-57
2021/05/22 00:44:05;;;;;;;12.55;2.20;;;11.80;66.80;;;;;;5079609;28;20135;-58
2021/05/22 00:46:31;;;;;;;9.57;2.08;;;11.80;66.80;;;;;;5053785;28;20037;-58
2021/05/22 00:48:57;;;;;;;8.93;2.28;;;11.80;67.10;;;;;;5081022;28;20048;-58
2021/05/22 00:51:23;;;;;;;14.80;2.53;;;11.80;67.10;;;;;;5052634;28;20068;-58
2021/05/22 00:53:49;;;;;;;11.30;2.28;;;11.80;67.10;;;;;;5076634;28;20058;-57
2021/05/22 00:56:15;;;;;;;9.50;1.70;;;11.80;66.80;;;;;;5076189;28;20044;-58
2021/05/22 00:58:43;;;;;;;9.48;1.98;;;11.80;67.00;;;;;;5076411;28;20130;-58
2021/05/22 01:01:09;;;;;;;10.73;1.90;;;11.90;66.00;;;;;;5062506;28;20296;-57
2021/05/22 01:03:40;;;;;;;9.20;2.70;;;11.90;66.10;;;;;;5060374;28;20036;-58
2021/05/22 01:06:15;;;;;;;10.60;1.90;;;11.90;66.50;;;;;;5076163;28;20550;-58
2021/05/22 01:08:52;;;;;;;10.40;2.35;;;11.90;67.00;;;;;;5043180;28;20040;-58
2021/05/22 01:11:25;;;;;;;10.43;2.00;;;11.90;67.40;;;;;;5070589;28;20046;-57
2021/05/22 01:14:05;;;;;;;8.88;1.90;;;11.90;67.20;;;;;;5063143;28;20047;-58
2021/05/22 01:16:32;;;;;;;8.55;1.75;;;11.90;67.50;;;;;;5068107;28;20083;-56
2021/05/22 01:19:01;;;;;;;12.70;1.98;;;12.00;68.00;;;;;;5065434;28;20432;-58
2021/05/22 01:21:27;;;;;;;10.60;1.90;;;11.90;68.50;;;;;;5073275;28;20078;-57
2021/05/22 01:24:01;;;;;;;11.40;2.05;;;11.80;69.20;;;;;;5030459;28;20378;-57
2021/05/22 01:26:28;;;;;;;11.40;2.05;;;11.80;69.80;;;;;;5068447;28;20086;-58
2021/05/22 01:28:58;;;;;;;5.78;2.00;;;11.80;70.00;;;;;;5069038;28;20083;-57
2021/05/22 01:31:24;;;;;;;7.90;1.63;;;11.70;70.50;;;;;;5037260;28;20039;-55
2021/05/22 01:33:51;;;;;;;7.65;1.90;;;11.70;71.00;;;;;;5065924;28;20102;-54
2021/05/22 01:36:17;;;;;;;7.50;1.63;;;11.70;71.20;;;;;;5082904;28;20048;-55
2021/05/22 01:38:43;;;;;;;6.43;2.17;;;11.70;71.30;;;;;;5066922;28;20070;-54
2021/05/22 01:41:09;;;;;;;14.55;1.98;;;11.70;71.60;;;;;;5070346;28;20448;-54
2021/05/22 01:43:40;;;;;;;7.45;2.10;;;11.70;71.40;;;;;;5070149;28;20037;-57
2021/05/22 01:46:09;;;;;;;9.97;1.80;;;11.70;71.50;;;;;;5055113;28;20040;-58
2021/05/22 01:48:39;;;;;;;7.63;1.80;;;11.70;71.70;;;;;;5055304;28;20040;-58
2021/05/22 01:51:07;;;;;;;10.45;1.92;;;11.70;71.20;;;;;;5072435;28;20119;-58
2021/05/22 01:53:35;;;;;;;9.48;1.92;;;11.70;71.20;;;;;;5076857;28;20421;-58
2021/05/22 01:56:02;;;;;;;7.50;1.80;;;11.70;71.80;;;;;;5066954;28;20048;-58
2021/05/22 01:58:27;;;;;;;7.88;2.13;;;11.70;71.70;;;;;;5061735;28;20044;-58
2021/05/22 02:00:53;;;;;;;13.05;2.10;;;11.70;72.00;;;;;;5075690;28;20123;-57
2021/05/22 02:03:35;;;;;;;10.40;1.90;;;11.60;72.50;;;;;;5073714;28;20040;-58
2021/05/22 02:06:04;;;;;;;6.40;1.70;;;11.50;72.80;;;;;;5074084;28;20127;-58
2021/05/22 02:08:33;;;;;;;7.05;1.70;;;11.50;72.90;;;;;;5073655;28;20033;-58
2021/05/22 02:10:59;;;;;;;7.53;1.73;;;11.60;73.00;;;;;;5075158;28;20235;-58
2021/05/22 02:13:25;;;;;;;8.75;1.70;;;11.50;72.40;;;;;;5074624;28;20465;-58
2021/05/22 02:15:57;;;;;;;7.00;1.48;;;11.50;72.50;;;;;;5073822;28;20060;-57
2021/05/22 02:18:31;;;;;;;9.35;1.80;;;11.60;72.40;;;;;;5080388;28;20519;-56
2021/05/22 02:20:58;;;;;;;5.43;1.40;;;11.70;71.70;;;;;;5074506;28;20691;-56
2021/05/22 02:23:26;;;;;;;6.72;2.10;;;11.70;71.80;;;;;;5069480;28;20068;-56
2021/05/22 02:25:57;;;;;;;8.60;1.80;;;11.60;72.00;;;;;;5071753;28;20043;-56
2021/05/22 02:28:27;;;;;;;7.57;1.58;;;11.50;72.40;;;;;;5073853;28;20036;-56
2021/05/22 02:30:54;;;;;;;9.27;1.80;;;11.50;72.30;;;;;;5075555;28;20038;-57
2021/05/22 02:33:20;;;;;;;11.50;1.75;;;11.50;72.10;;;;;;5070173;28;20045;-56
2021/05/22 02:35:47;;;;;;;12.27;2.78;;;11.50;72.00;;;;;;5075380;28;20052;-57
2021/05/22 02:38:20;;;;;;;8.98;2.03;;;11.50;72.30;;;;;;5067605;28;20094;-57
2021/05/22 02:40:48;;;;;;;9.38;1.65;;;11.60;72.40;;;;;;5077003;28;20060;-56
2021/05/22 02:43:14;;;;;;;6.30;1.60;;;11.50;72.60;;;;;;5057971;28;20042;-56
2021/05/22 02:45:43;;;;;;;11.68;2.00;;;11.50;72.30;;;;;;5073846;28;20116;-54
2021/05/22 02:48:13;;;;;;;9.48;1.52;;;11.50;71.80;;;;;;5067431;28;20362;-56
2021/05/22 02:50:41;;;;;;;9.73;1.77;;;11.50;72.00;;;;;;5073351;28;20051;-56
2021/05/22 02:53:09;;;;;;;14.40;2.72;;;11.50;72.30;;;;;;5061290;28;20036;-56
2021/05/22 02:55:37;;;;;;;9.10;1.70;;;11.50;72.90;;;;;;5064947;28;20048;-56
2021/05/22 02:58:05;;;;;;;9.52;1.88;;;11.40;73.20;;;;;;5060149;28;20122;-56
2021/05/22 03:00:32;;;;;;;6.85;1.60;;;11.50;73.10;;;;;;5080408;28;20041;-57
2021/05/22 03:02:59;;;;;;;7.15;1.50;;;11.40;72.80;;;;;;5070431;28;20127;-56
2021/05/22 03:05:25;;;;;;;7.90;1.65;;;11.50;72.60;;;;;;5071346;28;20040;-57
2021/05/22 03:07:51;;;;;;;11.00;1.60;;;11.50;72.30;;;;;;5074651;28;20037;-57
2021/05/22 03:10:17;;;;;;;5.95;1.73;;;11.40;72.70;;;;;;5074365;28;20037;-57
2021/05/22 03:12:43;;;;;;;8.68;1.77;;;11.50;73.10;;;;;;5066766;28;20048;-58
2021/05/22 03:15:12;;;;;;;5.28;1.55;;;11.40;73.40;;;;;;5071826;28;20076;-56
2021/05/22 03:17:38;;;;;;;8.43;1.50;;;11.40;73.30;;;;;;5073322;28;20044;-58
2021/05/22 03:20:05;;;;;;;5.65;1.55;;;11.40;73.40;;;;;;5071165;28;20067;-57
2021/05/22 03:22:31;;;;;;;6.72;1.70;;;11.40;73.70;;;;;;5066326;28;20036;-56
2021/05/22 03:24:57;;;;;;;9.10;1.80;;;11.30;74.60;;;;;;5081001;28;20040;-57
2021/05/22 03:27:23;;;;;;;7.03;1.60;;;11.30;75.40;;;;;;5035380;28;20037;-57
2021/05/22 03:29:49;;;;;;;8.02;1.63;;;11.30;76.10;;;;;;5068799;28;20109;-58
2021/05/22 03:32:14;;;;;;;6.70;1.70;;;11.20;76.90;;;;;;5072401;28;20037;-57
2021/05/22 03:34:40;;;;;;;10.18;1.80;;;11.20;77.90;;;;;;5066576;28;20401;-57
2021/05/22 03:37:06;;;;;;;8.55;1.77;;;11.20;78.10;;;;;;5049963;28;20037;-58
2021/05/22 03:39:32;;;;;;;9.43;1.90;;;11.10;79.10;;;;;;5055751;28;20093;-58
2021/05/22 03:41:58;;;;;;;7.63;1.67;;;11.00;80.00;;;;;;5078424;28;20040;-58
2021/05/22 03:44:23;;;;;;;9.35;2.35;;;10.90;80.80;;;;;;5058538;28;20044;-57
2021/05/22 03:46:49;;;;;;;10.95;2.13;;;10.80;81.60;;;;;;5071944;28;20044;-57
2021/05/22 03:49:16;;;;;;;6.30;2.00;;;10.90;81.90;;;;;;5059280;28;20047;-57
2021/05/22 03:51:41;;;;;;;6.43;2.00;;;10.80;82.30;;;;;;5065945;28;20044;-57
2021/05/22 03:54:08;;;;;;;11.07;2.63;;;10.70;82.40;;;;;;5051757;28;20066;-57
2021/05/22 03:56:35;;;;;;;7.07;2.05;;;10.60;83.10;;;;;;5070344;28;20041;-58
2021/05/22 03:59:00;;;;;;;10.63;2.35;;;10.60;83.50;;;;;;5062830;28;20471;-55
2021/05/22 04:01:26;;;;;;;6.38;2.30;;;10.60;83.20;;;;;;5061895;28;20515;-55
2021/05/22 04:03:52;;;;;;;6.43;2.25;;;10.60;84.10;;;;;;5058413;28;20041;-56
2021/05/22 04:06:18;;;;;;;8.68;2.00;;;10.50;84.40;;;;;;5065803;28;20501;-56
2021/05/22 04:08:44;;;;;;;7.80;2.13;;;10.50;84.50;;;;;;5041471;28;20049;-56
2021/05/22 04:11:10;;;;;;;8.15;2.50;;;10.50;85.20;;;;;;5071921;28;20081;-56
2021/05/22 04:13:35;;;;;;;8.23;1.85;;;10.40;85.20;;;;;;5071028;28;20044;-56
2021/05/22 04:16:01;;;;;;;8.13;2.28;;;10.40;85.10;;;;;;5065014;28;20115;-56
2021/05/22 04:18:27;;;;;;;8.15;2.20;;;10.40;85.90;;;;;;5064267;28;20032;-56
2021/05/22 04:20:53;;;;;;;15.07;2.65;;;10.40;86.30;;;;;;5078462;28;20492;-56
2021/05/22 04:23:18;;;;;;;10.65;2.63;;;10.40;86.30;;;;;;5052988;28;20043;-55
2021/05/22 04:25:44;;;;;;;8.30;2.38;;;10.40;86.60;;;;;;5066635;28;20045;-55
2021/05/22 04:28:10;;;;;;;10.52;2.22;;;10.40;86.20;;;;;;5065748;28;20089;-56
2021/05/22 04:30:36;;;;;;;10.75;3.15;;;10.40;86.60;;;;;;5069864;28;20044;-55
2021/05/22 04:33:02;;;;;;;11.02;2.13;;;10.30;87.10;;;;;;5071132;28;20033;-56
2021/05/22 04:35:28;;;;;;;10.48;2.40;;;10.40;86.90;;;;;;5071071;28;20071;-55
2021/05/22 04:37:54;;;;;;;8.43;2.60;;;10.40;86.70;;;;;;5073238;28;20060;-56
2021/05/22 04:40:19;;;;;;;7.13;2.10;;;10.40;87.10;;;;;;5072072;28;20528;-56
2021/05/22 04:42:45;;;;;;;8.27;2.42;;;10.40;86.10;;;;;;5070396;28;20102;-56
2021/05/22 04:45:12;;;;;;;6.38;2.28;;;10.40;86.40;;;;;;5069163;28;20053;-56
2021/05/22 04:47:39;;;;;;;9.57;2.42;;;10.30;86.70;;;;;;5070629;28;20121;-56
2021/05/22 04:50:06;;;;;;;6.55;2.35;;;10.30;86.90;;;;;;5069769;28;20036;-55
2021/05/22 04:52:32;;;;;;;7.85;1.95;;;10.40;87.20;;;;;;5067380;28;20453;-56
2021/05/22 04:54:57;;;;;;;14.02;2.75;;;10.30;87.10;;;;;;5069570;28;20051;-56
2021/05/22 04:57:23;;;;;;;13.07;2.78;;;10.30;87.10;;;;;;5064681;28;20186;-57
2021/05/22 04:59:49;;;;;;;6.57;2.20;;;10.30;87.20;;;;;;5052358;28;20181;-57
2021/05/22 05:02:15;;;;;;;8.43;2.35;;;10.50;86.20;;;;;;5071834;28;20068;-57
2021/05/22 05:04:40;;;;;;;11.68;2.55;;;10.40;86.30;;;;;;5071679;28;20510;-56
2021/05/22 05:07:07;;;;;;;4.20;1.75;;;10.60;86.50;;;;;;5073546;28;20048;-56
2021/05/22 05:09:38;;;;;;;9.13;2.20;;;10.50;85.40;;;;;;5033599;28;20045;-57
2021/05/22 05:12:06;;;;;;;6.43;2.03;;;10.40;86.00;;;;;;5073245;28;20041;-57
2021/05/22 05:14:34;;;;;;;9.07;3.30;;;10.50;86.00;;;;;;5036512;28;20087;-57
2021/05/22 05:17:00;;;;;;;4.75;2.00;;;10.50;85.70;;;;;;5070757;28;20041;-56
2021/05/22 05:19:28;;;;;;;8.70;2.03;;;10.50;85.70;;;;;;5070790;28;20115;-55
2021/05/22 05:21:55;;;;;;;8.98;2.40;;;10.50;86.50;;;;;;5056755;28;20090;-57
2021/05/22 05:24:21;;;;;;;7.10;2.20;;;10.40;86.20;;;;;;5066841;28;20040;-57
2021/05/22 05:26:48;;;;;;;8.77;2.13;;;10.40;86.50;;;;;;5061209;28;20079;-56
2021/05/22 05:29:15;;;;;;;8.48;2.10;;;10.40;86.70;;;;;;5027434;28;20048;-57
2021/05/22 05:31:40;;;;;;;4.45;1.80;;;10.50;86.60;;;;;;5078582;28;20143;-56
2021/05/22 05:34:06;;;;;;;4.60;1.95;;;10.50;86.80;;;;;;5076163;28;20044;-57
2021/05/22 05:36:32;;;;;;;12.27;2.88;;;10.40;86.90;;;;;;5077854;28;20034;-54
2021/05/22 05:38:58;;;;;;;6.50;2.17;;;10.50;87.20;;;;;;5077415;28;20028;-56
2021/05/22 05:41:23;;;;;;;9.27;2.10;;;10.50;87.30;;;;;;5082895;28;20043;-56
2021/05/22 05:43:51;;;;;;;7.28;2.10;;;10.40;87.30;;;;;;5077568;28;20041;-56
2021/05/22 05:46:16;;;;;;;9.60;1.83;;;10.50;87.40;;;;;;5080832;28;20032;-57
2021/05/22 05:48:43;;;;;;;8.40;2.05;;;10.50;87.70;;;;;;5075564;28;20036;-55
2021/05/22 05:51:09;;;;;;;6.75;2.05;;;10.50;87.60;;;;;;5060166;28;20246;-56
2021/05/22 05:53:35;;;;;;;9.25;2.55;;;10.50;87.80;;;;;;5075919;28;20144;-56
2021/05/22 05:56:01;;;;;;;6.57;2.08;;;10.50;87.90;;;;;;5071065;28;20551;-56
2021/05/22 05:58:28;;;;;;;7.78;2.15;;;10.60;88.00;;;;;;5077967;28;20158;-56
2021/05/22 06:00:53;;;;;;;8.73;1.70;;;10.60;87.80;;;;;;5062128;28;20391;-56
2021/05/22 06:03:27;;;;;;;5.30;1.95;;;10.60;87.70;;;;;;5076181;28;20515;-56
2021/05/22 06:05:53;;;;;;;9.77;2.38;;;10.70;88.50;;;;;;5068244;28;20106;-53
2021/05/22 06:08:19;;;;;;;5.57;2.30;;;10.60;88.30;;;;;;5077574;28;20056;-57
2021/05/22 06:10:47;;;;;;;5.90;1.90;;;10.70;88.40;;;;;;5072517;28;20046;-56
2021/05/22 06:13:22;;;;;;;6.82;2.25;;;10.70;88.70;;;;;;5081546;28;20044;-55
2021/05/22 06:15:50;;;;;;;9.02;1.92;;;10.60;88.50;;;;;;5076397;28;20036;-52
2021/05/22 06:18:15;;;;;;;8.13;2.30;;;10.70;89.00;;;;;;5081179;28;20401;-55
2021/05/22 06:20:41;;;;;;;5.35;2.00;;;10.60;89.20;;;;;;5070391;28;20124;-56
2021/05/22 06:23:07;;;;;;;7.03;2.20;;;10.70;88.80;;;;;;5081351;28;20040;-56
2021/05/22 06:25:32;;;;;;;6.05;2.05;;;10.80;89.20;;;;;;5072439;28;20554;-56
2021/05/22 06:27:58;;;;;;;5.20;1.95;;;10.70;89.20;;;;;;5081835;28;20036;-54
2021/05/22 06:30:24;;;;;;;6.97;2.20;;;10.70;89.00;;;;;;5076728;28;20051;-55
2021/05/22 06:32:52;;;;;;;5.65;1.98;;;10.70;89.00;;;;;;5082277;28;20519;-55
2021/05/22 06:35:19;;;;;;;5.15;1.98;;;10.80;89.00;;;;;;5054084;28;20036;-52
2021/05/22 06:37:45;;;;;;;9.48;2.38;;;10.70;89.00;;;;;;5072263;28;20063;-56
2021/05/22 06:40:12;;;;;;;8.10;2.33;;;10.80;89.20;;;;;;5079364;28;20533;-53
2021/05/22 06:42:38;;;;;;;6.90;2.47;;;10.80;89.40;;;;;;5083973;28;20044;-56
2021/05/22 06:45:09;;;;;;;5.60;2.03;;;10.80;89.30;;;;;;5068543;28;20044;-55
2021/05/22 06:47:35;;;;;;;4.43;2.15;;;10.80;89.60;;;;;;5055621;28;20049;-56
2021/05/22 06:50:01;;;;;;;6.88;2.40;;;10.90;89.60;;;;;;5073971;28;20044;-55
2021/05/22 06:52:26;;;;;;;7.10;2.22;;;10.90;89.30;;;;;;5057490;28;20127;-56
2021/05/22 06:54:52;;;;;;;6.65;2.20;;;10.80;89.90;;;;;;5071467;28;20066;-56
2021/05/22 06:57:18;;;;;;;3.65;1.95;;;10.90;89.80;;;;;;5072273;28;20037;-55
2021/05/22 06:59:45;;;;;;;5.78;2.40;;;10.70;90.00;;;;;;5068924;28;20033;-56
2021/05/22 07:02:11;;;;;;;9.45;2.65;;;10.70;90.30;;;;;;5073386;28;20033;-56
2021/05/22 07:04:36;;;;;;;5.88;2.17;;;10.70;90.40;;;;;;5072258;28;20043;-56
2021/05/22 07:07:02;;;;;;;6.40;2.30;;;10.60;90.60;;;;;;5068649;28;20071;-55
2021/05/22 07:09:28;;;;;;;9.20;2.22;;;10.60;90.50;;;;;;5071489;28;20036;-55
2021/05/22 07:11:55;;;;;;;7.00;2.92;;;10.60;91.00;;;;;;5068114;28;20485;-55
2021/05/22 07:14:21;;;;;;;7.05;2.70;;;10.60;90.80;;;;;;5070946;28;20079;-55
2021/05/22 07:16:46;;;;;;;7.78;2.92;;;10.60;91.10;;;;;;5067928;28;20041;-54
2021/05/22 07:19:12;;;;;;;7.72;2.50;;;10.60;91.20;;;;;;5070854;28;20041;-56
2021/05/22 07:21:38;;;;;;;7.82;3.10;;;10.60;91.50;;;;;;5064773;28;20039;-55
2021/05/22 07:24:04;;;;;;;6.65;3.03;;;10.50;91.40;;;;;;5053974;28;20041;-54
2021/05/22 07:26:30;;;;;;;7.43;2.60;;;10.70;91.50;;;;;;5071920;28;20043;-55
2021/05/22 07:28:56;;;;;;;6.32;2.40;;;10.60;91.60;;;;;;5072287;28;20036;-56
2021/05/22 07:31:22;;;;;;;6.53;2.70;;;10.60;91.60;;;;;;5071552;28;20047;-56
2021/05/22 07:33:50;;;;;;;6.55;2.60;;;10.60;91.50;;;;;;5071299;28;20052;-51
2021/05/22 07:36:16;;;;;;;6.25;2.50;;;10.60;91.80;;;;;;5070533;28;20548;-55
2021/05/22 07:38:41;;;;;;;10.30;2.72;;;10.60;91.70;;;;;;5070088;28;20132;-55
2021/05/22 07:41:08;;;;;;;9.30;3.05;;;10.60;91.80;;;;;;5058445;28;20166;-55
2021/05/22 07:43:33;;;;;;;6.57;2.83;;;10.60;91.80;;;;;;5055809;28;20123;-55
2021/05/22 07:45:59;;;;;;;6.97;2.95;;;10.60;91.70;;;;;;5068677;28;20182;-55
2021/05/22 07:48:25;;;;;;;5.07;2.90;;;10.60;92.00;;;;;;5056246;28;20503;-55
2021/05/22 07:50:53;;;;;;;5.28;2.80;;;10.60;92.00;;;;;;5054061;28;20064;-55
2021/05/22 07:53:20;;;;;;;5.78;2.90;;;10.70;92.40;;;;;;5053088;28;20048;-56
2021/05/22 07:55:46;;;;;;;7.68;3.17;;;10.70;92.10;;;;;;5068003;28;20124;-57
2021/05/22 07:58:12;;;;;;;7.45;2.75;;;10.70;92.20;;;;;;5071417;28;20070;-56
2021/05/22 08:00:38;;;;;;;6.05;3.08;;;10.60;92.50;;;;;;5053348;28;20052;-56
2021/05/22 08:03:04;;;;;;;5.97;3.10;;;10.60;92.40;;;;;;5071452;28;20110;-56
2021/05/22 08:05:30;;;;;;;7.13;3.30;;;10.70;92.30;;;;;;5070719;28;20041;-57
2021/05/22 08:07:55;;;;;;;5.00;3.53;;;10.70;92.40;;;;;;5070928;28;20032;-55
2021/05/22 08:10:21;;;;;;;4.85;2.92;;;10.70;92.30;;;;;;5069439;28;20416;-54
2021/05/22 08:12:47;;;;;;;6.55;2.92;;;10.80;92.50;;;;;;5070619;28;20040;-55
2021/05/22 08:15:13;;;;;;;6.30;3.13;;;10.80;92.10;;;;;;5070887;28;20044;-54
2021/05/22 08:17:38;;;;;;;7.38;3.28;;;10.80;92.30;;;;;;5070985;28;20124;-56
2021/05/22 08:20:05;;;;;;;6.53;3.30;;;10.80;92.30;;;;;;5070697;28;20064;-55
2021/05/22 08:22:33;;;;;;;7.05;3.30;;;10.80;92.40;;;;;;5071541;28;20028;-56
2021/05/22 08:24:59;;;;;;;5.78;3.45;;;10.80;92.60;;;;;;5069479;28;20552;-55
2021/05/22 08:27:25;;;;;;;5.75;3.47;;;10.80;92.30;;;;;;5070755;28;20044;-56
2021/05/22 08:29:51;;;;;;;6.32;3.85;;;10.80;92.40;;;;;;5052917;28;20051;-55
2021/05/22 08:32:16;;;;;;;4.95;3.08;;;10.90;92.40;;;;;;5053708;28;20036;-55
2021/05/22 08:34:42;;;;;;;6.35;3.42;;;10.80;92.30;;;;;;5070200;28;20044;-56
2021/05/22 08:37:09;;;;;;;6.40;3.47;;;10.80;92.60;;;;;;5071280;28;20415;-55
2021/05/22 08:39:34;;;;;;;5.55;3.72;;;10.80;92.80;;;;;;5069759;28;20055;-56
2021/05/22 08:42:03;;;;;;;5.45;3.55;;;10.80;92.40;;;;;;5070404;28;20473;-56
2021/05/22 08:44:28;;;;;;;4.97;3.08;;;10.80;92.40;;;;;;5069608;28;20055;-55
2021/05/22 08:46:54;;;;;;;8.65;3.58;;;10.80;92.60;;;;;;5052372;28;20373;-55
2021/05/22 08:49:21;;;;;;;6.30;3.20;;;10.80;92.50;;;;;;5071383;28;20476;-56
2021/05/22 08:51:47;;;;;;;5.05;3.60;;;10.80;92.80;;;;;;5064122;28;20033;-56
2021/05/22 08:54:12;;;;;;;7.22;3.45;;;10.80;92.60;;;;;;5049466;28;20052;-54
2021/05/22 08:56:38;;;;;;;6.68;3.83;;;10.80;92.60;;;;;;5068689;28;20040;-55
2021/05/22 08:59:05;;;;;;;5.43;3.75;;;10.80;92.50;;;;;;5070901;28;20051;-55
2021/05/22 09:01:30;;;;;;;5.93;3.88;;;10.90;92.50;;;;;;5058271;28;20036;-55
2021/05/22 09:03:57;;;;;;;6.75;3.55;;;10.90;92.40;;;;;;5050928;28;20098;-56
2021/05/22 09:06:23;;;;;;;5.20;3.70;;;10.90;92.30;;;;;;5059556;28;20036;-56
2021/05/22 09:09:05;;;;;;;4.70;3.20;;;10.90;92.30;;;;;;5070659;28;20135;-56
2021/05/22 09:11:52;;;;;;;5.32;3.72;;;11.00;92.60;;;;;;5068293;28;20048;-55
2021/05/22 09:14:42;;;;;;;5.28;3.85;;;11.10;92.40;;;;;;5067968;28;20461;-56
2021/05/22 09:17:09;;;;;;;5.95;3.55;;;11.10;92.30;;;;;;5069398;28;20048;-55
2021/05/22 09:19:36;;;;;;;6.30;3.80;;;11.10;92.40;;;;;;5069131;28;20044;-56
2021/05/22 09:22:14;;;;;;;5.90;4.25;;;11.10;92.40;;;;;;5035537;28;20041;-55
2021/05/22 09:25:06;;;;;;;5.70;3.92;;;11.10;92.60;;;;;;5062776;28;20390;-56
2021/05/22 09:27:38;;;;;;;5.07;3.90;;;11.20;92.60;;;;;;5047329;28;20040;-56
2021/05/22 09:30:15;;;;;;;5.13;4.38;;;11.20;92.60;;;;;;5052292;28;20043;-55
2021/05/22 09:32:41;;;;;;;5.15;4.03;;;11.20;92.50;;;;;;5069088;28;20041;-54
2021/05/22 09:35:09;;;;;;;5.40;4.03;;;11.20;92.90;;;;;;5068931;28;20522;-53
2021/05/22 09:37:43;;;;;;;8.50;4.45;;;11.20;92.80;;;;;;5069418;28;20101;-53
2021/05/22 09:40:12;;;;;;;5.90;4.43;;;11.20;92.90;;;;;;5066462;28;20048;-54
2021/05/22 09:42:41;;;;;;;6.00;4.40;;;11.20;93.00;;;;;;5066258;28;20105;-54
2021/05/22 09:45:35;;;;;;;8.38;4.57;;;11.30;93.00;;;;;;5064470;28;20416;-57
2021/05/22 09:48:12;;;;;;;6.00;4.40;;;11.30;93.00;;;;;;5067717;28;20276;-55
2021/05/22 09:50:47;;;;;;;10.45;4.85;;;11.20;93.10;;;;;;5063157;28;20127;-56
2021/05/22 09:53:27;;;;;;;8.95;5.40;;;11.20;93.10;;;;;;5069181;28;20050;-56
2021/05/22 09:56:14;;;;;;;7.72;5.20;;;11.20;93.10;;;;;;5068514;28;20028;-54
2021/05/22 09:58:45;;;;;;;6.60;4.35;;;11.30;93.30;;;;;;5066760;28;20155;-55
2021/05/22 10:01:12;;;;;;;5.75;4.05;;;11.30;93.10;;;;;;5062676;28;20128;-56
2021/05/22 10:03:40;;;;;;;6.13;4.50;;;11.30;93.20;;;;;;5066979;28;20409;-55
2021/05/22 10:06:07;;;;;;;7.22;4.55;;;11.30;93.30;;;;;;5029575;28;20567;-55
2021/05/22 10:08:36;;;;;;;6.90;4.45;;;11.30;93.20;;;;;;5052950;28;20037;-54
2021/05/22 10:11:07;;;;;;;8.00;5.05;;;11.30;93.20;;;;;;5039469;28;20047;-54
2021/05/22 10:13:33;;;;;;;7.53;4.80;;;11.40;93.60;;;;;;5072761;28;20106;-54
2021/05/22 10:16:01;;;;;;;9.65;5.18;;;11.40;93.40;;;;;;5074031;28;20049;-57
2021/05/22 10:18:32;;;;;;;8.75;5.32;;;11.40;93.30;;;;;;5074302;28;20040;-56
2021/05/22 10:21:05;;;;;;;;;;;11.40;93.30;;;;;;5054895;28;20086;-56
2021/05/22 10:23:31;;;;;;;14.60;5.72;;;11.30;93.40;;;;;;5055695;28;19982;-56
2021/05/22 10:25:58;;;;;;;8.93;6.05;;;11.30;93.40;;;;;;5072074;28;20417;-56
2021/05/22 10:28:27;;;;;;;9.57;5.82;;;11.30;93.70;;;;;;5073539;28;20497;-56
2021/05/22 10:30:55;;;;;;;8.82;6.28;;;11.30;93.50;;;;;;5073856;28;20415;-56
2021/05/22 10:33:21;;;;;;;8.82;6.53;;;11.30;93.70;;;;;;5070974;28;20183;-56
2021/05/22 10:35:49;;;;;;;9.25;5.82;;;11.30;93.70;;;;;;5073060;28;20094;-56
2021/05/22 10:38:37;;;;;;;7.80;5.05;;;11.30;93.80;;;;;;5072285;28;20044;-56
2021/05/22 10:41:08;;;;;;;8.90;5.07;;;11.40;93.80;;;;;;5073357;28;20071;-56
2021/05/22 10:43:55;;;;;;;6.20;4.60;;;11.40;93.70;;;;;;5070581;28;20044;-57
2021/05/22 10:46:23;;;;;;;10.25;4.60;;;11.40;93.70;;;;;;5073415;28;20068;-57
2021/05/22 10:48:53;;;;;;;7.38;4.25;;;11.30;93.60;;;;;;5055497;28;20075;-55
2021/05/22 10:51:39;;;;;;;6.72;4.00;;;11.40;93.70;;;;;;5022212;28;20044;-56
2021/05/22 10:54:13;;;;;;;9.45;4.47;;;11.40;93.80;;;;;;5036763;28;20045;-57
2021/05/22 10:57:06;;;;;;;8.07;4.43;;;11.60;93.90;;;;;;5073358;28;20055;-56
2021/05/22 10:59:33;;;;;;;8.98;4.50;;;11.70;94.00;;;;;;5052441;28;20106;-56
2021/05/22 11:02:00;;;;;;;6.85;4.53;;;11.80;93.60;;;;;;5055072;28;20123;-56
2021/05/22 11:04:27;;;;;;;7.95;5.15;;;11.90;93.60;;;;;;5070553;28;20043;-57
2021/05/22 11:06:58;;;;;;;9.65;4.88;;;12.00;93.50;;;;;;5073013;28;20071;-56
2021/05/22 11:09:28;;;;;;;7.32;4.65;;;12.20;93.50;;;;;;5072810;28;20044;-56
2021/05/22 11:12:02;;;;;;;7.22;4.13;;;12.30;93.40;;;;;;5072733;28;20044;-56
2021/05/22 11:14:40;;;;;;;8.27;5.13;;;12.30;93.00;;;;;;5054862;28;20102;-56
2021/05/22 11:17:21;;;;;;;8.73;5.43;;;12.40;92.90;;;;;;5073239;28;20056;-56
2021/05/22 11:20:05;;;;;;;7.63;5.38;;;12.50;93.30;;;;;;5072846;28;20037;-56
2021/05/22 11:22:41;;;;;;;11.18;6.43;;;12.50;92.70;;;;;;5073047;28;20486;-56
2021/05/22 11:25:08;;;;;;;11.23;6.40;;;12.50;92.60;;;;;;5069673;28;20043;-56
2021/05/22 11:30:50;;;;;;;12.00;7.35;;;12.30;92.50;;;;;;5016863;28;20075;-54
2021/05/22 11:33:28;;;;;;;12.00;7.50;;;12.30;92.50;;;;;;5072384;28;20043;-57
2021/05/22 11:36:00;;;;;;;8.60;5.68;;;12.30;92.20;;;;;;5072013;28;20033;-53
2021/05/22 11:38:32;;;;;;;6.05;3.28;;;12.40;92.50;;;;;;5069710;28;20068;-57
2021/05/22 11:40:59;;;;;;;4.30;2.50;;;12.50;91.20;;;;;;5072193;28;20037;-54
2021/05/22 11:43:31;;;;;;;5.95;2.40;;;12.50;90.90;;;;;;5069544;28;20045;-55
2021/05/22 11:46:05;;;;;;;8.95;2.50;;;12.50;90.30;;;;;;5071947;28;20044;-56
2021/05/22 11:48:33;;;;;;;5.18;2.60;;;12.40;89.80;;;;;;5072632;28;20040;-56
2021/05/22 11:51:20;;;;;;;6.88;2.47;;;12.40;89.00;;;;;;5072051;28;20037;-56
2021/05/22 11:53:50;;;;;;;6.40;3.00;;;12.40;90.10;;;;;;5053653;28;20493;-56
2021/05/22 11:56:17;;;;;;;8.80;2.80;;;12.60;90.70;;;;;;5068923;28;20058;-57
2021/05/22 11:58:47;;;;;;;6.60;2.45;;;12.70;90.00;;;;;;5071329;28;20048;-56
2021/05/22 12:01:21;;;;;;;6.50;2.97;;;12.80;89.30;;;;;;5055180;28;20033;-57
2021/05/22 12:03:50;;;;;;;6.45;2.92;;;13.00;90.40;;;;;;5071981;28;20401;-56
2021/05/22 12:06:24;;;;;;;4.03;2.35;;;13.30;89.10;;;;;;5071377;28;20079;-57
2021/05/22 12:09:07;;;;;;;6.05;2.25;;;13.40;87.60;;;;;;5072185;28;20401;-55
2021/05/22 12:11:36;;;;;;;7.90;2.42;;;13.40;86.10;;;;;;5054479;28;20439;-53
2021/05/22 12:14:08;;;;;;;4.80;2.13;;;13.40;83.20;;;;;;5034769;28;20497;-55
2021/05/22 12:16:38;;;;;;;11.70;2.42;;;13.40;83.70;;;;;;5067151;28;20097;-56
2021/05/22 12:19:18;;;;;;;7.15;2.53;;;13.40;82.90;;;;;;5070329;28;20051;-56
2021/05/22 12:21:50;;;;;;;6.90;2.70;;;13.40;82.60;;;;;;5072065;28;20047;-54
2021/05/22 12:24:18;;;;;;;5.95;2.55;;;13.30;83.20;;;;;;5070266;28;20040;-54
2021/05/22 12:26:53;;;;;;;7.88;2.47;;;13.10;82.20;;;;;;5027833;28;20052;-56
2021/05/22 12:29:20;;;;;;;7.28;2.90;;;13.10;83.80;;;;;;5068103;28;20043;-54
2021/05/22 12:31:50;;;;;;;7.30;2.65;;;13.30;85.00;;;;;;5063669;28;20044;-53
2021/05/22 12:34:25;;;;;;;8.20;2.83;;;13.40;84.40;;;;;;5036391;28;20046;-54
2021/05/22 12:37:21;;;;;;;6.90;3.00;;;13.40;83.10;;;;;;5053162;28;20072;-54
2021/05/22 12:39:49;;;;;;;7.53;2.60;;;13.30;81.80;;;;;;5068160;28;20045;-54
2021/05/22 12:42:29;;;;;;;6.45;2.70;;;13.30;81.40;;;;;;5071013;28;20033;-55
2021/05/22 12:45:14;;;;;;;6.60;3.05;;;13.20;81.70;;;;;;5070951;28;20037;-55
2021/05/22 12:47:51;;;;;;;9.80;2.85;;;13.20;82.00;;;;;;5071425;28;20130;-55
2021/05/22 12:50:28;;;;;;;6.93;2.67;;;13.50;82.90;;;;;;5035971;28;20040;-55
2021/05/22 12:52:58;;;;;;;9.38;2.90;;;13.60;81.70;;;;;;5071418;28;20048;-57
2021/05/22 12:55:35;;;;;;;7.68;2.72;;;13.50;80.50;;;;;;5068183;28;20052;-55